Latest Weather Observations for Macquarie Island

IDT60801

Issued at 8:11 pm EST Wednesday 30 September 2020 (issued every 10 minutes, with the page automatically refreshed every 10 minutes)

About weather observations | Map of weather stations | Latest weather observations for TAS | Other Formats
Station Details ID: 300004 Name: MACQUARIE ISLAND Lat: -54.50 Lon: 158.94 Height: 6.0 m
Data from the previous 72 hours. | See also: Recent months at Macquarie Island
Date/Time
EST
Temp
°C
App
Temp
°C
Dew
Point
°C
Rel
Hum
%
Delta-T
°C
Wind Press
QNH
hPa
Press
MSL
hPa
Rain since
9am
mm
Dir  Spd
km/h
Gust
km/h
Spd
kts
Gust
kts
30/08:00pm 5.4 -0.4 4.5 94 0.4 NW 24 28 13 15 1002.4 1002.7 0.2
30/07:30pm 5.4 -1.1 4.5 94 0.4 NW 28 35 15 19 1002.3 - 0.2
30/07:00pm 5.4 -0.8 4.5 94 0.4 NNW 26 35 14 19 1002.2 - 0.2
30/06:30pm 5.3 -0.9 4.3 93 0.4 NW 26 32 14 17 1001.8 - 0.2
30/06:00pm 5.5 -0.7 4.3 92 0.5 NW 26 32 14 17 1001.7 1002.0 0.2
30/05:30pm 5.6 -1.7 4.4 92 0.5 NW 32 39 17 21 1001.7 - 0.2
30/05:00pm 5.6 -1.9 4.4 92 0.5 NW 33 39 18 21 1001.6 - 0.2
30/04:30pm 5.7 -2.9 4.5 92 0.5 NW 39 46 21 25 1001.4 - 0.2
30/04:00pm 5.8 -3.2 4.4 91 0.6 WNW 41 50 22 27 1001.4 - 0.2
30/03:30pm 5.8 -3.2 4.6 92 0.5 WNW 41 50 22 27 1001.4 - 0.2
30/03:00pm 5.9 -3.5 4.5 91 0.6 NW 43 50 23 27 1001.3 1001.6 0.2
30/02:30pm 5.8 -3.6 4.3 90 0.6 NW 43 52 23 28 1001.4 - 0.2
30/02:00pm 5.9 -3.7 4.4 90 0.6 WNW 44 54 24 29 1001.4 - 0.2
30/01:30pm 5.9 -3.5 4.2 89 0.7 NW 43 50 23 27 1001.6 - 0.2
30/01:00pm 5.9 -3.2 4.2 89 0.7 NW 41 48 22 26 1001.7 - 0.2
30/12:30pm 5.7 -3.4 4.2 90 0.6 NW 41 46 22 25 1001.9 - 0.2
30/12:00pm 5.7 -4.0 4.0 89 0.7 WNW 44 56 24 30 1002.0 1002.3 0.2
30/11:30am 6.0 -2.3 4.2 88 0.8 WNW 37 44 20 24 1002.3 - 0.2
30/11:00am 5.7 -3.1 3.7 87 0.8 WNW 39 46 21 25 1002.4 - 0.2
30/10:30am 5.9 -2.1 3.7 86 0.9 WNW 35 43 19 23 1002.5 - 0.2
30/10:00am 5.5 -2.4 4.2 91 0.6 WNW 35 41 19 22 1002.6 - 0.2
30/09:30am 5.9 -2.8 4.1 88 0.8 WNW 39 48 21 26 1002.6 - 0.0
30/09:00am 5.0 -3.4 3.5 90 0.6 WNW 37 46 20 25 1002.7 1003.0 3.8
30/08:30am 4.1 -4.9 2.3 88 0.7 W 39 50 21 27 1002.7 - 3.6
30/08:00am 4.3 -3.9 2.5 88 0.7 W 35 44 19 24 1002.5 - 3.4
30/07:30am 4.2 -5.6 2.2 87 0.8 W 43 50 23 27 1002.3 - 3.4
30/07:00am 3.9 -6.9 1.9 87 0.8 W 48 57 26 31 1002.4 - 3.4
30/06:30am 3.7 -6.7 2.1 89 0.6 W 46 57 25 31 1002.3 - 3.4
30/06:00am 3.7 -6.4 1.7 87 0.8 W 44 54 24 29 1002.3 1002.6 3.4
30/05:30am 3.5 -6.0 1.7 88 0.7 W 41 54 22 29 1002.1 - 3.4
30/05:00am 3.3 -7.9 2.1 92 0.5 W 50 63 27 34 1001.9 - 3.4
30/04:30am 3.3 -9.0 1.8 90 0.6 W 56 70 30 38 1001.9 - 3.2
30/04:00am 3.5 -7.3 1.9 89 0.6 W 48 59 26 32 1001.7 - 3.2
30/03:30am 3.7 -7.1 1.9 88 0.7 W 48 59 26 32 1001.8 - 3.2
30/03:00am 3.5 -7.4 1.5 87 0.8 W 48 67 26 36 1001.8 1002.1 3.2
30/02:55am 3.5 -7.4 1.5 87 0.8 W 48 67 26 36 1001.8 - 3.2
30/02:30am 3.4 -8.9 2.1 91 0.5 W 56 72 30 39 1001.6 - 3.2
30/02:25am 3.5 -8.4 1.9 89 0.6 W 54 72 29 39 1001.5 - 3.2
30/02:00am 3.4 -7.8 1.9 90 0.6 W 50 63 27 34 1001.5 - 3.2
30/01:30am 3.5 -7.7 1.9 89 0.6 W 50 61 27 33 1001.6 - 3.2
30/01:00am 3.4 -7.8 1.9 90 0.6 W 50 59 27 32 1001.4 - 3.2
30/12:30am 3.3 -7.5 2.1 92 0.5 W 48 59 26 32 1001.4 - 3.2
30/12:00am 3.3 -7.2 1.5 88 0.7 W 46 57 25 31 1001.4 1001.7 3.2
 
Date/Time
EST
Temp
°C
App
Temp
°C
Dew
Point
°C
Rel
Hum
%
Delta-T
°C
Wind Press
QNH
hPa
Press
MSL
hPa
Rain since
9am
mm
Dir  Spd
km/h
Gust
km/h
Spd
kts
Gust
kts
29/11:30pm 3.2 -8.0 2.0 92 0.5 W 50 59 27 32 1001.3 - 3.2
29/11:00pm 3.3 -7.4 2.4 94 0.4 W 48 57 26 31 1001.5 - 3.2
29/10:30pm 3.1 -6.9 2.2 94 0.4 W 44 50 24 27 1001.7 - 3.2
29/10:00pm 2.8 -4.6 2.1 95 0.3 WNW 30 39 16 21 1001.9 - 3.2
29/09:30pm 2.3 -4.8 1.6 95 0.3 NW 28 33 15 18 1002.2 - 3.0
29/09:00pm 1.5 -5.3 0.8 95 0.3 NNW 26 32 14 17 1002.8 1003.1 3.0
29/08:30pm 1.0 -5.1 0.3 95 0.3 NNW 22 26 12 14 1003.2 - 2.8
29/08:00pm 0.4 -4.9 -0.4 94 0.3 NNW 17 20 9 11 1003.5 - 2.6
29/07:30pm 0.0 -4.2 -1.0 93 0.4 NW 11 15 6 8 1003.9 - 2.6
29/07:00pm -0.5 -4.8 -1.8 91 0.4 NW 11 15 6 8 1004.2 - 2.4
29/06:30pm -0.8 -4.8 -2.2 90 0.4 W 9 11 5 6 1004.2 - 2.2
29/06:00pm -1.1 -5.2 -2.7 89 0.5 W 9 9 5 5 1004.5 1004.8 2.2
29/05:30pm -1.2 -5.3 -3.1 87 0.6 W 9 13 5 7 1004.8 - 2.2
29/05:00pm -1.2 -5.7 -3.4 85 0.7 WNW 11 17 6 9 1005.1 - 2.0
29/04:30pm -1.3 -5.9 -3.8 83 0.7 W 11 17 6 9 1005.2 - 2.0
29/04:00pm -1.1 -6.0 -3.6 83 0.8 W 13 22 7 12 1005.5 - 2.0
29/03:30pm -1.0 -7.2 -4.5 77 1.1 W 19 33 10 18 1005.7 - 2.0
29/03:00pm -0.8 -6.7 -5.8 69 1.5 WSW 17 26 9 14 1005.7 1006.0 1.8
29/02:30pm -0.6 -6.6 -6.8 63 1.8 WSW 17 28 9 15 1005.8 - 1.8
29/02:00pm -0.4 -8.9 -7.2 60 2.0 W 30 44 16 24 1005.7 - 1.6
29/01:49pm -0.2 -8.2 -6.2 64 1.8 W 28 50 15 27 1005.9 - 0.8
29/01:30pm -0.8 -6.8 -6.9 63 1.8 WSW 17 30 9 16 1006.0 - 0.4
29/01:00pm -1.2 -7.6 -6.9 65 1.6 WSW 19 39 10 21 1006.2 - 0.4
29/12:30pm -1.3 -9.0 -6.6 67 1.5 WSW 26 39 14 21 1006.3 - 0.4
29/12:00pm -1.6 -8.0 -7.1 66 1.6 SW 19 35 10 19 1006.6 1006.9 0.2
29/11:30am -1.8 -8.7 -5.8 74 1.1 SSW 22 43 12 23 1006.7 - 0.2
29/11:00am -2.5 -9.5 -7.6 68 1.4 SW 22 33 12 18 1006.9 - 0.2
29/10:30am -1.8 -8.6 -5.5 76 1.1 SSW 22 35 12 19 1007.1 - 0.0
29/10:00am -2.3 -10.0 -6.3 74 1.1 S 26 35 14 19 1007.2 - 0.0
29/09:30am -2.1 -10.0 -5.2 79 0.9 S 28 41 15 22 1007.3 - 0.0
29/09:15am -2.3 -10.3 -5.8 77 1.0 SSW 28 50 15 27 1007.3 - 0.0
29/09:00am -3.4 -9.9 -7.5 73 1.0 SSW 19 30 10 16 1007.3 1007.6 0.8
29/08:30am -3.1 -10.4 -6.5 77 0.9 SSW 24 35 13 19 1007.3 - 0.8
29/08:00am -3.6 -11.8 -7.4 75 0.9 S 28 46 15 25 1007.2 - 0.6
29/07:30am -4.0 -11.7 -6.9 80 0.7 S 26 44 14 24 1007.2 - 0.2
29/07:00am -4.0 -13.5 -7.3 78 0.8 S 35 56 19 30 1007.1 - 0.2
29/06:59am -4.6 -14.2 -8.2 76 0.8 S 35 56 19 30 1007.1 - 0.2
29/06:30am -4.2 -13.2 -8.0 75 0.9 S 32 43 17 23 1006.9 - 0.2
29/06:09am -4.8 -13.1 -8.9 73 0.9 SSW 28 56 15 30 1006.7 - 0.2
29/06:00am -4.8 -13.1 -8.9 73 0.9 SSW 28 44 15 24 1006.7 1007.0 0.2
29/05:30am -3.8 -12.2 -5.9 85 0.5 S 30 41 16 22 1006.2 - 0.2
29/05:00am -4.4 -13.0 -8.5 73 0.9 SSW 30 39 16 21 1005.9 - 0.2
29/04:49am -4.8 -14.1 -9.4 70 1.0 S 33 52 18 28 1005.9 - 0.2
29/04:30am -4.1 -13.0 -7.5 77 0.8 S 32 46 17 25 1005.5 - 0.2
29/04:01am -4.4 -13.3 -7.5 79 0.7 S 32 50 17 27 1005.3 - 0.2
29/04:00am -3.9 -13.0 -6.8 80 0.7 S 33 50 18 27 1005.3 - 0.2
29/03:30am -3.9 -13.7 -6.4 83 0.6 S 37 61 20 33 1004.8 - 0.2
29/03:03am -3.7 -12.4 -5.5 87 0.4 S 32 50 17 27 1004.5 - 0.2
29/03:00am -4.4 -13.8 -6.7 84 0.5 S 35 50 19 27 1004.6 1004.9 0.2
29/02:49am -4.2 -13.6 -6.0 87 0.4 S 35 54 19 29 1004.6 - 0.2
29/02:30am -4.5 -12.9 -6.0 89 0.3 S 30 46 16 25 1004.2 - 0.2
29/02:00am -4.0 -12.9 -5.5 89 0.3 S 33 44 18 24 1004.2 - 0.2
29/01:30am -3.8 -12.2 -5.6 87 0.4 SSW 30 56 16 30 1004.2 - 0.2
29/01:07am -4.4 -12.6 -8.0 76 0.8 SSW 28 46 15 25 1004.3 - 0.2
29/01:00am -4.3 -13.7 -6.9 82 0.6 S 35 50 19 27 1004.2 - 0.2
29/12:30am -5.3 -14.8 -7.9 82 0.5 SW 35 69 19 37 1004.8 - 0.2
29/12:24am -4.9 -13.2 -8.6 75 0.8 SW 28 69 15 37 1004.7 - 0.2
29/12:00am -5.3 -12.9 -9.4 73 0.9 SW 24 48 13 26 1004.6 1004.9 0.2
 
Date/Time
EST
Temp
°C
App
Temp
°C
Dew
Point
°C
Rel
Hum
%
Delta-T
°C
Wind Press
QNH
hPa
Press
MSL
hPa
Rain since
9am
mm
Dir  Spd
km/h
Gust
km/h
Spd
kts
Gust
kts
28/11:43pm -4.9 -13.1 -8.0 79 0.7 SSW 28 46 15 25 1004.6 - 0.2
28/11:41pm -4.4 -12.9 -7.0 82 0.6 SSW 30 43 16 23 1004.5 - 0.2
28/11:36pm -5.5 -15.9 -9.0 76 0.7 SW 39 72 21 39 1004.7 - 0.2
28/11:35pm -5.0 -14.2 -8.2 78 0.7 SW 33 52 18 28 1004.7 - 0.2
28/11:30pm -4.3 -12.7 -6.4 85 0.4 S 30 43 16 23 1004.3 - 0.2
28/11:13pm -4.9 -13.0 -6.9 86 0.4 SSW 28 46 15 25 1004.6 - 0.2
28/11:08pm -5.9 -13.4 -8.0 85 0.4 SSW 24 33 13 18 1004.5 - 0.2
28/11:00pm -6.1 -17.3 -7.8 88 0.2 WSW 44 63 24 34 1004.7 - 0.2
28/10:55pm -5.4 -16.5 -8.1 81 0.5 SW 43 61 23 33 1004.6 - 0.2
28/10:30pm -6.0 -15.0 -7.8 87 0.3 SSW 32 50 17 27 1004.7 - 0.2
28/10:00pm -4.6 -13.2 -7.8 78 0.7 SSW 30 48 16 26 1004.8 - 0.2
28/09:30pm -4.3 -12.4 -6.6 84 0.5 S 28 52 15 28 1004.8 - 0.2
28/09:00pm -4.6 -12.8 -7.7 79 0.7 SSW 28 56 15 30 1004.9 1005.2 0.2
28/08:58pm -5.5 -13.8 -9.0 76 0.7 SSW 28 56 15 30 1004.9 - 0.2
28/08:30pm -4.6 -13.7 -7.8 78 0.7 S 33 46 18 25 1005.0 - 0.2
28/08:01pm -4.9 -14.0 -7.2 84 0.5 S 33 54 18 29 1005.4 - 0.2
28/08:00pm -4.9 -14.0 -7.5 82 0.5 S 33 46 18 25 1005.3 - 0.2
28/07:33pm -4.1 -13.3 -8.2 73 1.0 S 33 52 18 28 1004.9 - 0.2
28/07:30pm -4.4 -13.1 -8.7 72 1.0 S 30 44 16 24 1004.9 - 0.2
28/07:00pm -5.1 -14.1 -8.8 75 0.8 SSW 32 57 17 31 1005.0 - 0.2
28/06:54pm -5.7 -15.4 -9.9 72 0.9 SSW 35 56 19 30 1005.0 - 0.2
28/06:52pm -5.8 -14.9 -9.3 76 0.7 SW 32 39 17 21 1005.0 - 0.2
28/06:30pm -5.0 -15.3 -7.7 81 0.6 S 39 57 21 31 1004.6 - 0.2
28/06:00pm -5.1 -15.1 -9.2 73 0.9 S 37 59 20 32 1004.1 1004.4 0.2
28/05:35pm -5.7 -17.3 -7.7 86 0.3 S 46 65 25 35 1004.0 - 0.2
28/05:30pm -5.9 -17.6 -8.2 84 0.4 S 46 63 25 34 1004.0 - 0.2
28/05:01pm -5.2 -16.7 -10.5 66 1.2 S 44 65 24 35 1003.2 - 0.2
28/05:00pm -4.8 -16.2 -9.2 71 1.0 S 44 61 24 33 1003.2 - 0.2
28/04:31pm -4.4 -14.4 -8.5 73 0.9 S 37 57 20 31 1002.7 - 0.2
28/04:30pm -4.1 -14.4 -7.9 75 0.9 S 39 54 21 29 1002.6 - 0.2
28/04:09pm -4.4 -16.1 -9.4 68 1.2 S 46 65 25 35 1002.3 - 0.2
28/04:00pm -4.5 -16.6 -8.9 71 1.0 S 48 65 26 35 1002.4 - 0.2
28/03:30pm -4.5 -16.8 -11.1 60 1.5 S 48 69 26 37 1001.6 - 0.2
28/03:00pm -4.1 -16.1 -7.5 77 0.8 S 48 69 26 37 1001.1 1001.4 0.2
28/02:31pm -4.2 -15.9 -8.3 73 1.0 S 46 65 25 35 1000.6 - 0.2
28/02:30pm -3.6 -15.6 -7.4 75 0.9 S 48 65 26 35 1000.4 - 0.2
28/02:00pm -4.2 -15.3 -9.0 69 1.1 S 43 69 23 37 999.7 - 0.2
28/01:30pm -3.0 -15.4 -8.2 67 1.3 S 50 74 27 40 998.8 - 0.2
28/01:00pm -3.9 -15.3 -9.7 64 1.4 S 44 69 24 37 998.2 - 0.2
28/12:35pm -2.8 -14.0 -6.9 73 1.1 S 44 63 24 34 997.5 - 0.2
28/12:30pm -3.0 -14.4 -9.4 61 1.6 S 44 56 24 30 997.5 - 0.2
28/12:00pm -3.3 -15.8 -9.3 63 1.5 S 50 74 27 40 997.2 997.5 0.2
28/11:30am -3.1 -14.4 -8.7 65 1.4 S 44 69 24 37 996.8 - 0.2
28/11:11am -2.7 -14.2 -6.3 76 1.0 S 46 65 25 35 996.3 - 0.2
28/11:00am -3.2 -16.1 -9.6 61 1.6 S 52 69 28 37 996.1 - 0.2
28/10:30am -3.4 -15.1 -9.0 65 1.4 S 46 67 25 36 995.5 - 0.2
28/10:00am -3.7 -16.1 -8.4 70 1.1 S 50 69 27 37 995.1 - 0.2
28/09:30am -4.7 -15.9 -7.3 82 0.6 S 44 63 24 34 994.7 - 0.0
28/09:09am -4.4 -15.5 -8.8 71 1.0 S 43 61 23 33 994.5 - 0.0
28/09:00am -4.0 -15.1 -8.3 72 1.0 S 43 59 23 32 994.2 994.5 2.2
28/08:33am -4.6 -15.9 -8.3 75 0.8 S 44 67 24 36 993.8 - 1.8
28/08:30am -4.6 -15.2 -7.4 81 0.6 S 41 57 22 31 993.7 - 1.8
28/08:21am -4.9 -15.9 -7.8 80 0.6 S 43 61 23 33 993.5 - 1.8
28/08:00am -5.0 -16.3 -8.4 77 0.7 S 44 61 24 33 993.1 - 1.6
28/07:31am -4.8 -15.5 -7.9 79 0.7 S 41 59 22 32 992.7 - 1.6
28/07:30am -4.8 -15.9 -7.9 79 0.7 S 43 59 23 32 992.5 - 1.6
28/07:06am -5.5 -16.7 -7.3 87 0.3 S 44 63 24 34 992.1 - 1.6
28/07:00am -5.5 -16.7 -7.2 88 0.3 S 44 61 24 33 991.9 - 1.6
28/06:30am -5.1 -16.5 -9.5 71 1.0 S 44 63 24 34 991.3 - 1.6
28/06:04am -5.7 -15.6 -8.0 84 0.4 S 37 56 20 30 991.0 - 1.6
28/06:00am -5.2 -15.8 -7.5 84 0.5 S 41 54 22 29 990.7 991.0 1.6
28/05:36am -5.2 -15.9 -8.4 78 0.7 S 41 61 22 33 990.3 - 1.6
28/05:30am -5.0 -15.7 -7.9 80 0.6 S 41 56 22 30 990.1 - 1.6
28/05:00am -5.3 -15.3 -9.0 75 0.8 S 37 70 20 38 989.6 - 1.6
28/04:30am -5.6 -16.7 -8.5 80 0.6 S 43 63 23 34 989.1 - 1.6
28/04:00am -5.9 -17.3 -10.1 72 0.9 SSW 44 76 24 41 988.8 - 1.6
28/03:30am -4.9 -15.2 -8.3 77 0.7 S 39 61 21 33 988.1 - 1.6
28/03:00am -6.0 -16.7 -8.0 86 0.3 SSW 41 67 22 36 987.9 988.2 1.6
28/02:30am -5.0 -16.2 -9.2 72 0.9 S 43 61 23 33 987.2 - 1.6
28/02:00am -4.8 -15.2 -9.4 70 1.0 SSW 39 63 21 34 987.1 - 1.6
28/01:30am -4.5 -14.9 -9.5 68 1.1 SSW 39 59 21 32 986.9 - 1.6
28/01:00am -4.1 -14.4 -7.7 76 0.8 S 39 61 21 33 986.4 - 1.6
28/12:30am -3.7 -12.7 -8.4 70 1.1 SSW 32 52 17 28 986.0 - 1.6
28/12:00am -3.5 -12.1 -8.3 69 1.2 SSW 30 56 16 30 985.7 986.0 1.6
 
Date/Time
EST
Temp
°C
App
Temp
°C
Dew
Point
°C
Rel
Hum
%
Delta-T
°C
Wind Press
QNH
hPa
Press
MSL
hPa
Rain since
9am
mm
Dir  Spd
km/h
Gust
km/h
Spd
kts
Gust
kts
27/11:30pm -2.9 -11.9 -8.3 66 1.4 SSW 32 59 17 32 985.2 - 1.6
27/11:29pm -2.8 -11.4 -7.9 68 1.3 SSW 30 59 16 32 985.2 - 1.6
27/11:00pm -3.2 -12.2 -5.7 83 0.6 SSW 33 48 18 26 984.8 - 1.4
27/10:30pm -3.1 -12.9 -6.5 77 0.9 SSW 37 61 20 33 984.7 - 1.4
27/10:25pm -2.9 -13.1 -6.5 76 0.9 SSW 39 61 21 33 984.6 - 1.4
27/10:24pm -3.0 -12.8 -6.4 77 0.9 SSW 37 52 20 28 984.6 - 1.4
27/10:00pm -3.0 -12.3 -5.2 85 0.5 SW 35 54 19 29 984.4 - 1.4
27/09:30pm -3.0 -11.7 -4.9 87 0.5 SW 32 61 17 33 984.2 - 1.4
27/09:05pm -1.8 -11.0 -4.3 83 0.7 SSW 35 54 19 29 983.7 - 1.2
27/09:00pm -2.2 -11.8 -4.2 86 0.5 S 37 54 20 29 983.7 984.0 1.2
27/08:30pm -1.7 -11.7 -4.9 79 0.9 SSW 39 61 21 33 983.4 - 1.2

Other formats

Comma delimited format used in spreadsheet applications
http://www.bom.gov.au/fwo/IDT60801/IDT60801.94998.axf

JavaScript Object Notation format (JSON) in row-major order
http://www.bom.gov.au/fwo/IDT60801/IDT60801.94998.json

Data quality

Most of these data are generated automatically and are frequently updated. Quality checks on data are not normally performed. It is possible for incorrect values to appear. Refer to information at About Latest Weather Observations and please check the disclaimer before using these data.